createdAt,value
2019-02-16T00:00:53.112Z,67.20
2019-02-16T00:03:22.778Z,67.80
2019-02-16T00:05:52.090Z,68.90
2019-02-16T00:08:21.407Z,69.20
2019-02-16T00:10:50.676Z,69.00
2019-02-16T00:13:19.987Z,69.50
2019-02-16T00:15:49.264Z,69.00
2019-02-16T00:18:18.572Z,68.20
2019-02-16T00:20:48.074Z,68.00
2019-02-16T00:23:18.104Z,67.30
2019-02-16T00:25:47.384Z,67.90
2019-02-16T00:28:16.709Z,68.40
2019-02-16T00:30:46.020Z,67.60
2019-02-16T00:33:15.325Z,67.50
2019-02-16T00:35:44.645Z,67.60
2019-02-16T00:38:13.942Z,68.30
2019-02-16T00:40:43.355Z,68.50
2019-02-16T00:43:12.639Z,68.70
2019-02-16T00:45:41.952Z,68.50
2019-02-16T00:48:11.226Z,68.30
2019-02-16T00:50:40.526Z,67.70
2019-02-16T00:53:09.845Z,67.10
2019-02-16T00:55:39.124Z,67.10
2019-02-16T00:58:08.404Z,67.20
2019-02-16T01:00:37.700Z,66.80
2019-02-16T01:03:07.004Z,67.00
2019-02-16T01:05:36.282Z,66.90
2019-02-16T01:08:05.620Z,67.10
2019-02-16T01:10:34.892Z,66.90
2019-02-16T01:13:04.204Z,67.20
2019-02-16T01:15:33.521Z,67.80
2019-02-16T01:18:02.802Z,68.10
2019-02-16T01:20:32.129Z,68.60
2019-02-16T01:23:01.428Z,68.60
2019-02-16T01:25:30.697Z,69.10
2019-02-16T01:28:00.012Z,69.50
2019-02-16T01:30:29.346Z,69.20
2019-02-16T01:32:58.695Z,68.10
2019-02-16T01:35:27.969Z,67.80
2019-02-16T01:37:57.292Z,68.00
2019-02-16T01:40:26.611Z,69.00
2019-02-16T01:42:55.916Z,69.20
2019-02-16T01:45:25.184Z,68.90
2019-02-16T01:47:54.496Z,69.10
2019-02-16T01:50:23.770Z,69.80
2019-02-16T01:52:53.059Z,69.60
2019-02-16T01:55:22.382Z,69.70
2019-02-16T01:57:51.691Z,69.80
2019-02-16T02:00:20.967Z,69.70
2019-02-16T02:02:50.299Z,69.70
2019-02-16T02:05:19.572Z,70.60
2019-02-16T02:07:48.832Z,70.10
2019-02-16T02:10:18.155Z,70.00
2019-02-16T02:12:47.465Z,70.10
2019-02-16T02:15:16.762Z,69.80
2019-02-16T02:17:46.082Z,69.40
2019-02-16T02:20:15.347Z,69.20
2019-02-16T02:22:44.660Z,69.20
2019-02-16T02:25:14.228Z,69.20
2019-02-16T02:27:43.509Z,68.90
2019-02-16T02:30:12.836Z,68.90
2019-02-16T02:32:42.111Z,69.00
2019-02-16T02:35:12.326Z,69.20
2019-02-16T02:37:41.601Z,68.90
2019-02-16T02:40:10.933Z,68.60
2019-02-16T02:42:40.353Z,68.70
2019-02-16T02:45:10.477Z,69.40
2019-02-16T02:47:39.756Z,69.30
2019-02-16T02:50:09.082Z,69.10
2019-02-16T02:52:38.430Z,68.60
2019-02-16T02:55:08.051Z,68.20
2019-02-16T02:57:37.364Z,68.40
2019-02-16T03:00:07.473Z,68.20
2019-02-16T03:02:36.734Z,68.00
2019-02-16T03:05:07.820Z,67.90
2019-02-16T03:07:37.151Z,67.80
2019-02-16T03:10:07.064Z,68.10
2019-02-16T03:12:36.445Z,68.10
2019-02-16T03:15:06.914Z,68.20
2019-02-16T03:17:36.300Z,68.20
2019-02-16T03:20:05.968Z,68.00
2019-02-16T03:23:11.509Z,67.90
2019-02-16T03:25:41.205Z,67.80
2019-02-16T03:28:37.330Z,67.90
2019-02-16T03:31:37.911Z,67.90
2019-02-16T03:34:17.894Z,68.60
2019-02-16T03:37:23.349Z,68.20
2019-02-16T03:39:52.616Z,68.60
2019-02-16T03:42:21.980Z,69.60
2019-02-16T03:44:51.272Z,70.30
2019-02-16T03:47:20.544Z,69.90
2019-02-16T03:49:49.875Z,69.80
2019-02-16T03:52:19.161Z,69.40
2019-02-16T03:54:48.503Z,69.30
2019-02-16T03:57:17.817Z,69.20
2019-02-16T03:59:47.128Z,69.00
2019-02-16T04:02:16.452Z,69.00
2019-02-16T04:04:45.776Z,68.90
2019-02-16T04:07:15.103Z,69.60
2019-02-16T04:09:44.380Z,70.10
2019-02-16T04:12:13.656Z,70.20
2019-02-16T04:14:42.967Z,70.10
2019-02-16T04:17:12.280Z,70.20
2019-02-16T04:19:41.654Z,70.00
2019-02-16T04:22:10.926Z,70.00
2019-02-16T04:24:40.232Z,70.10
2019-02-16T04:27:09.518Z,71.30
2019-02-16T04:29:38.844Z,70.70
2019-02-16T04:32:08.118Z,70.80
2019-02-16T04:34:37.456Z,70.60
2019-02-16T04:37:06.736Z,70.50
2019-02-16T04:39:36.067Z,70.40
2019-02-16T04:42:05.422Z,70.30
2019-02-16T04:44:34.739Z,70.00
2019-02-16T04:47:04.021Z,69.90
2019-02-16T04:49:33.341Z,69.70
2019-02-16T04:52:02.633Z,70.20
2019-02-16T04:54:31.978Z,70.80
2019-02-16T04:57:01.249Z,71.30
2019-02-16T04:59:30.976Z,70.90
2019-02-16T05:02:00.257Z,70.40
2019-02-16T05:04:29.640Z,70.20
2019-02-16T05:06:59.010Z,70.10
2019-02-16T05:09:28.374Z,69.80
2019-02-16T05:11:57.689Z,69.90
2019-02-16T05:14:26.963Z,69.70
2019-02-16T05:16:56.593Z,69.60
2019-02-16T05:19:25.863Z,69.50
2019-02-16T05:21:55.280Z,69.50
2019-02-16T05:24:24.573Z,69.60
2019-02-16T05:26:53.946Z,69.60
2019-02-16T05:29:23.229Z,69.60
2019-02-16T05:31:52.624Z,69.50
2019-02-16T05:34:21.945Z,69.80
2019-02-16T05:36:51.238Z,70.70
2019-02-16T05:39:20.648Z,70.40
2019-02-16T05:41:49.938Z,70.20
2019-02-16T05:44:19.320Z,70.50
2019-02-16T05:46:48.598Z,70.60
2019-02-16T05:49:17.916Z,72.10
2019-02-16T05:51:47.225Z,71.80
2019-02-16T05:54:16.632Z,71.20
2019-02-16T05:56:45.923Z,70.80
2019-02-16T05:59:15.253Z,70.60
2019-02-16T06:01:53.208Z,70.30
2019-02-16T06:04:15.572Z,70.10
2019-02-16T06:06:44.848Z,70.10
2019-02-16T06:09:14.172Z,70.10
2019-02-16T06:11:43.452Z,70.10
2019-02-16T06:14:12.826Z,70.10
2019-02-16T06:16:42.101Z,70.10
2019-02-16T06:19:11.419Z,70.10
2019-02-16T06:21:40.717Z,72.40
2019-02-16T06:24:10.028Z,72.30
2019-02-16T06:26:39.312Z,71.10
2019-02-16T06:29:08.622Z,71.10
2019-02-16T06:31:37.940Z,71.00
2019-02-16T06:34:07.263Z,71.00
2019-02-16T06:36:41.433Z,71.00
2019-02-16T06:39:10.751Z,71.00
2019-02-16T06:41:40.066Z,70.80
2019-02-16T06:44:09.409Z,70.90
2019-02-16T06:46:40.765Z,70.80
2019-02-16T06:49:10.300Z,70.90
2019-02-16T06:51:39.608Z,70.90
2019-02-16T06:54:08.918Z,71.80
2019-02-16T06:57:00.242Z,73.50
2019-02-16T06:59:29.512Z,74.40
2019-02-16T07:01:58.793Z,74.40
2019-02-16T07:04:28.117Z,73.70
2019-02-16T07:06:57.440Z,73.40
2019-02-16T07:09:26.727Z,75.20
2019-02-16T07:11:56.036Z,75.40
2019-02-16T07:14:25.415Z,76.10
2019-02-16T07:17:04.425Z,75.70
2019-02-16T07:19:36.934Z,75.90
2019-02-16T07:22:06.300Z,75.70
2019-02-16T07:24:35.612Z,75.50
2019-02-16T07:27:04.902Z,75.30
2019-02-16T07:29:34.225Z,74.50
2019-02-16T07:32:03.639Z,73.70
2019-02-16T07:34:32.953Z,73.80
2019-02-16T07:37:02.258Z,74.80
2019-02-16T07:39:31.649Z,75.50
2019-02-16T07:42:01.028Z,75.30
2019-02-16T07:44:54.232Z,75.00
2019-02-16T07:47:54.518Z,74.80
2019-02-16T07:50:51.764Z,76.80
2019-02-16T07:53:43.008Z,77.20
2019-02-16T07:56:43.367Z,77.20
2019-02-16T07:59:40.689Z,76.10
2019-02-16T08:02:37.869Z,74.90
2019-02-16T08:05:16.269Z,74.30
2019-02-16T08:08:07.305Z,74.50
2019-02-16T08:10:54.449Z,74.30
2019-02-16T08:13:41.550Z,75.10
2019-02-16T08:16:28.270Z,75.70
2019-02-16T08:19:16.546Z,76.00
2019-02-16T08:22:07.849Z,76.00
2019-02-16T08:24:59.120Z,75.90
2019-02-16T08:27:43.168Z,76.50
2019-02-16T08:30:27.804Z,76.80
2019-02-16T08:33:16.060Z,76.30
2019-02-16T08:36:11.214Z,76.00
2019-02-16T08:38:58.236Z,75.00
2019-02-16T08:41:45.483Z,74.50
2019-02-16T08:44:26.444Z,74.30
2019-02-16T08:47:12.408Z,74.10
2019-02-16T08:50:12.732Z,73.20
2019-02-16T08:52:51.188Z,72.40
2019-02-16T08:55:39.315Z,72.10
2019-02-16T08:58:36.991Z,69.00
2019-02-16T09:01:24.224Z,68.80
2019-02-16T09:04:04.743Z,66.80
2019-02-16T09:06:54.883Z,65.40
2019-02-16T09:09:43.196Z,65.60
2019-02-16T09:12:30.402Z,65.50
2019-02-16T09:15:18.652Z,64.60
2019-02-16T09:18:08.753Z,64.20
2019-02-16T09:20:50.088Z,63.90
2019-02-16T09:23:44.598Z,63.20
2019-02-16T09:26:24.919Z,61.60
2019-02-16T09:29:19.332Z,62.00
2019-02-16T09:31:56.630Z,61.20
2019-02-16T09:34:47.660Z,61.20
2019-02-16T09:37:38.991Z,60.00
2019-02-16T09:40:32.928Z,60.00
2019-02-16T09:43:36.312Z,60.10
2019-02-16T09:46:24.532Z,59.90
2019-02-16T09:49:15.369Z,59.10
2019-02-16T09:51:51.264Z,58.80
2019-02-16T09:54:54.860Z,58.80
2019-02-16T09:57:54.874Z,58.90
2019-02-16T10:00:39.728Z,59.10
2019-02-16T10:03:26.603Z,58.90
2019-02-16T10:06:05.358Z,59.40
2019-02-16T10:08:59.530Z,57.80
2019-02-16T10:11:46.217Z,57.60
2019-02-16T10:14:30.760Z,57.50
2019-02-16T10:17:28.274Z,57.30
2019-02-16T10:20:22.577Z,56.40
2019-02-16T10:23:13.884Z,56.40
2019-02-16T10:26:20.711Z,56.40
2019-02-16T10:28:54.560Z,55.90
2019-02-16T10:31:48.803Z,55.20
2019-02-16T10:34:33.322Z,54.80
2019-02-16T10:37:30.837Z,54.50
2019-02-16T10:40:15.823Z,55.00
2019-02-16T10:43:02.892Z,52.80
2019-02-16T10:45:51.728Z,52.70
2019-02-16T10:48:31.451Z,52.20
2019-02-16T10:51:19.744Z,52.50
2019-02-16T10:54:02.056Z,52.30
2019-02-16T10:56:46.445Z,52.10
2019-02-16T10:59:37.731Z,51.50
2019-02-16T11:02:22.032Z,50.10
2019-02-16T11:05:13.263Z,50.00
2019-02-16T11:08:19.712Z,50.30
2019-02-16T11:10:57.160Z,50.70
2019-02-16T11:13:44.347Z,50.10
2019-02-16T11:16:43.696Z,49.20
2019-02-16T11:19:30.727Z,47.10
2019-02-16T11:22:08.457Z,46.40
2019-02-16T11:24:55.525Z,46.60
2019-02-16T11:27:31.692Z,47.50
2019-02-16T11:30:15.646Z,45.40
2019-02-16T11:32:56.916Z,45.60
2019-02-16T11:35:50.989Z,44.50
2019-02-16T11:38:25.988Z,45.30
2019-02-16T11:41:18.937Z,45.20
2019-02-16T11:43:53.400Z,44.30
2019-02-16T11:46:43.177Z,44.40
2019-02-16T11:49:40.336Z,42.60
2019-02-16T11:52:37.488Z,42.90
2019-02-16T11:55:32.058Z,43.90
2019-02-16T11:58:26.404Z,41.80
2019-02-16T12:01:13.437Z,41.30
2019-02-16T12:04:13.985Z,41.60
2019-02-16T12:06:53.645Z,41.40
2019-02-16T12:09:30.869Z,40.60
2019-02-16T12:12:19.009Z,41.70
2019-02-16T12:15:05.852Z,39.50
2019-02-16T12:17:56.988Z,40.20
2019-02-16T12:21:03.755Z,40.40
2019-02-16T12:23:42.910Z,40.40
2019-02-16T12:26:43.153Z,39.10
2019-02-16T12:29:34.203Z,39.80
2019-02-16T12:32:21.172Z,38.90
2019-02-16T12:35:08.064Z,39.80
2019-02-16T12:37:56.351Z,39.60
2019-02-16T12:40:47.427Z,37.20
2019-02-16T12:43:38.452Z,36.00
2019-02-16T12:46:16.817Z,36.50
2019-02-16T12:49:02.956Z,35.20
2019-02-16T12:52:00.898Z,34.70
2019-02-16T12:54:49.176Z,33.30
2019-02-16T12:57:40.733Z,34.30
2019-02-16T13:00:28.586Z,33.90
2019-02-16T13:03:23.321Z,34.30
2019-02-16T13:06:01.276Z,35.40
2019-02-16T13:08:58.840Z,33.50
2019-02-16T13:11:47.192Z,33.40
2019-02-16T13:14:40.559Z,32.60
2019-02-16T13:17:21.061Z,31.70
2019-02-16T13:20:00.338Z,33.70
2019-02-16T13:22:55.166Z,33.10
2019-02-16T13:25:30.066Z,32.10
2019-02-16T13:28:12.808Z,30.30
2019-02-16T13:31:00.022Z,29.40
2019-02-16T13:33:48.354Z,30.10
2019-02-16T13:36:45.510Z,30.70
2019-02-16T13:39:42.736Z,31.20
2019-02-16T13:42:17.373Z,31.20
2019-02-16T13:44:55.174Z,29.00
2019-02-16T13:47:41.028Z,30.10
2019-02-16T13:50:29.288Z,29.60
2019-02-16T13:53:35.675Z,29.70
2019-02-16T13:56:33.064Z,27.70
2019-02-16T13:59:21.348Z,29.00
2019-02-16T14:02:12.656Z,27.50
2019-02-16T14:04:55.212Z,27.90
2019-02-16T14:07:46.571Z,26.30
2019-02-16T14:10:39.760Z,28.40
2019-02-16T14:13:31.207Z,27.20
2019-02-16T14:16:22.777Z,28.40
2019-02-16T14:18:52.076Z,28.10
2019-02-16T14:21:21.384Z,26.70
2019-02-16T14:23:50.729Z,27.90
2019-02-16T14:26:20.108Z,28.30
2019-02-16T14:28:49.554Z,27.20
2019-02-16T14:31:28.085Z,26.80
2019-02-16T14:33:50.960Z,27.40
2019-02-16T14:36:20.272Z,28.60
2019-02-16T14:39:00.876Z,28.30
2019-02-16T14:41:30.193Z,28.80
2019-02-16T14:43:59.660Z,28.60
2019-02-16T14:46:28.997Z,29.60
2019-02-16T14:48:58.551Z,30.20
2019-02-16T14:51:27.919Z,29.90
2019-02-16T14:53:57.206Z,30.70
2019-02-16T14:56:26.548Z,31.10
2019-02-16T14:58:55.838Z,31.00
2019-02-16T15:01:25.122Z,31.90
2019-02-16T15:03:54.448Z,32.30
2019-02-16T15:06:23.736Z,33.40
2019-02-16T15:08:53.020Z,34.30
2019-02-16T15:11:22.369Z,34.10
2019-02-16T15:13:51.664Z,34.70
2019-02-16T15:16:21.020Z,34.60
2019-02-16T15:18:50.319Z,33.90
2019-02-16T15:21:19.642Z,34.20
2019-02-16T15:23:48.985Z,34.30
2019-02-16T15:26:18.270Z,35.60
2019-02-16T15:28:47.580Z,36.70
2019-02-16T15:31:16.887Z,38.40
2019-02-16T15:33:46.204Z,38.60
2019-02-16T15:36:23.752Z,39.40
2019-02-16T15:38:46.553Z,39.90
2019-02-16T15:41:15.852Z,40.50
2019-02-16T15:43:45.238Z,41.30
2019-02-16T15:46:14.527Z,42.60
2019-02-16T15:48:43.917Z,43.70
2019-02-16T15:51:13.266Z,45.00
2019-02-16T15:53:42.593Z,46.00
2019-02-16T15:56:11.924Z,46.70
2019-02-16T15:58:41.270Z,47.50
2019-02-16T16:01:10.642Z,47.80
2019-02-16T16:03:40.013Z,48.00
2019-02-16T16:06:09.340Z,48.10
2019-02-16T16:08:48.316Z,48.50
2019-02-16T16:11:39.606Z,48.80
2019-02-16T16:14:26.825Z,49.10
2019-02-16T16:17:06.572Z,50.40
2019-02-16T16:19:58.397Z,50.90
2019-02-16T16:22:41.351Z,51.30
2019-02-16T16:25:35.872Z,51.60
2019-02-16T16:28:24.170Z,51.30
2019-02-16T16:31:15.946Z,51.00
2019-02-16T16:34:04.350Z,51.40
2019-02-16T16:36:52.641Z,51.10
2019-02-16T16:39:36.185Z,51.00
2019-02-16T16:42:24.833Z,51.80
2019-02-16T16:45:22.267Z,52.30
2019-02-16T16:48:10.086Z,52.50
2019-02-16T16:50:47.610Z,52.70
2019-02-16T16:53:43.001Z,52.20
2019-02-16T16:56:30.008Z,52.50
2019-02-16T16:59:36.526Z,53.30
2019-02-16T17:02:43.589Z,53.30
2019-02-16T17:05:37.552Z,53.30
2019-02-16T17:08:20.793Z,53.60
2019-02-16T17:11:07.788Z,54.10
2019-02-16T17:13:58.587Z,54.30
2019-02-16T17:16:56.175Z,54.60
2019-02-16T17:19:40.885Z,54.40
2019-02-16T17:22:35.125Z,54.70
2019-02-16T17:25:21.586Z,54.70
2019-02-16T17:28:12.888Z,54.80
2019-02-16T17:30:53.791Z,54.80
2019-02-16T17:33:48.324Z,55.20
2019-02-16T17:36:42.918Z,55.10
2019-02-16T17:39:40.292Z,55.30
2019-02-16T17:42:27.303Z,55.30
2019-02-16T17:45:10.083Z,55.50
2019-02-16T17:47:49.160Z,55.50
2019-02-16T17:50:34.177Z,55.70
2019-02-16T17:53:37.600Z,55.70
2019-02-16T17:56:18.088Z,56.00
2019-02-16T17:58:59.469Z,56.60
2019-02-16T18:01:46.474Z,56.00
2019-02-16T18:04:35.248Z,56.80
2019-02-16T18:07:22.440Z,56.80
2019-02-16T18:10:00.382Z,57.00
2019-02-16T18:12:51.564Z,57.00
2019-02-16T18:15:39.842Z,57.30
2019-02-16T18:18:21.032Z,57.00
2019-02-16T18:21:05.807Z,57.00
2019-02-16T18:23:42.822Z,57.50
2019-02-16T18:26:33.936Z,58.40
2019-02-16T18:29:25.018Z,58.80
2019-02-16T18:32:19.122Z,59.40
2019-02-16T18:35:06.303Z,59.50
2019-02-16T18:37:57.600Z,59.40
2019-02-16T18:40:44.788Z,58.60
2019-02-16T18:43:30.312Z,58.80
2019-02-16T18:46:28.264Z,59.80
2019-02-16T18:49:06.788Z,60.90
2019-02-16T18:51:43.774Z,60.10
2019-02-16T18:54:38.208Z,61.00
2019-02-16T18:57:33.412Z,62.50
2019-02-16T19:00:30.929Z,62.90
2019-02-16T19:03:15.135Z,62.10
2019-02-16T19:05:51.044Z,60.70
2019-02-16T19:08:57.393Z,60.70
2019-02-16T19:11:44.366Z,60.90
2019-02-16T19:14:41.817Z,61.10
2019-02-16T19:17:19.807Z,60.90
2019-02-16T19:20:08.168Z,61.60
2019-02-16T19:23:05.612Z,62.40
2019-02-16T19:26:00.063Z,62.20
2019-02-16T19:29:03.916Z,62.00
2019-02-16T19:31:39.379Z,64.50
2019-02-16T19:34:36.721Z,65.10
2019-02-16T19:37:25.108Z,62.90
2019-02-16T19:40:06.568Z,64.20
2019-02-16T19:42:52.560Z,63.10
2019-02-16T19:45:33.118Z,66.00
2019-02-16T19:48:12.591Z,65.80
2019-02-16T19:50:58.736Z,63.80
2019-02-16T19:53:46.384Z,63.30
2019-02-16T19:56:33.544Z,63.30
2019-02-16T19:59:24.847Z,63.40
2019-02-16T20:02:02.309Z,63.50
2019-02-16T20:04:43.870Z,63.70
2019-02-16T20:07:30.982Z,63.60
2019-02-16T20:10:22.095Z,64.20
2019-02-16T20:13:17.680Z,64.40
2019-02-16T20:16:08.526Z,66.00
2019-02-16T20:18:55.690Z,65.50
2019-02-16T20:21:38.800Z,64.80
2019-02-16T20:24:39.437Z,65.00
2019-02-16T20:27:15.962Z,64.60
2019-02-16T20:29:53.986Z,64.50
2019-02-16T20:32:48.406Z,64.70
2019-02-16T20:35:35.520Z,64.50
2019-02-16T20:38:23.154Z,64.50
2019-02-16T20:41:14.485Z,64.50
2019-02-16T20:43:55.855Z,64.50
2019-02-16T20:46:30.964Z,65.60
2019-02-16T20:49:10.936Z,65.20
2019-02-16T20:52:14.239Z,65.70
2019-02-16T20:54:51.345Z,68.10
2019-02-16T20:57:47.787Z,66.80
2019-02-16T21:00:44.359Z,67.70
2019-02-16T21:03:31.200Z,68.70
2019-02-16T21:06:09.753Z,68.50
2019-02-16T21:08:59.197Z,68.30
2019-02-16T21:11:34.729Z,67.90
2019-02-16T21:14:11.968Z,67.90
2019-02-16T21:16:50.681Z,67.50
2019-02-16T21:19:45.009Z,66.90
2019-02-16T21:22:31.887Z,67.50
2019-02-16T21:25:13.680Z,66.90
2019-02-16T21:27:57.818Z,67.00
2019-02-16T21:30:38.752Z,66.70
2019-02-16T21:33:20.356Z,66.80
2019-02-16T21:36:03.539Z,68.70
2019-02-16T21:38:51.785Z,67.30
2019-02-16T21:41:58.600Z,67.80
2019-02-16T21:44:37.038Z,67.10
2019-02-16T21:47:28.433Z,68.10
2019-02-16T21:50:14.560Z,67.20
2019-02-16T21:53:21.270Z,67.70
2019-02-16T21:56:17.174Z,67.60
2019-02-16T21:59:07.430Z,67.80
2019-02-16T22:01:40.765Z,67.20
2019-02-16T22:04:47.151Z,67.60
2019-02-16T22:07:24.437Z,68.20
2019-02-16T22:09:59.866Z,67.80
2019-02-16T22:13:03.325Z,67.70
2019-02-16T22:15:33.132Z,67.50
2019-02-16T22:18:02.458Z,67.70
2019-02-16T22:20:31.792Z,67.50
2019-02-16T22:23:01.320Z,67.40
2019-02-16T22:25:30.608Z,67.30
2019-02-16T22:27:59.894Z,67.30
2019-02-16T22:30:29.337Z,67.20
2019-02-16T22:32:58.677Z,67.30
2019-02-16T22:35:28.029Z,67.20
2019-02-16T22:37:57.519Z,67.40
2019-02-16T22:40:26.829Z,67.60
2019-02-16T22:42:56.169Z,67.60
2019-02-16T22:45:25.482Z,67.80
2019-02-16T22:47:54.878Z,67.60
2019-02-16T22:50:24.156Z,67.80
2019-02-16T22:52:53.445Z,67.80
2019-02-16T22:55:22.869Z,67.70
2019-02-16T22:57:52.168Z,67.60
2019-02-16T23:00:39.308Z,67.60
2019-02-16T23:03:09.021Z,68.10
2019-02-16T23:05:38.780Z,67.70
2019-02-16T23:08:08.908Z,67.50
2019-02-16T23:10:38.222Z,67.50
2019-02-16T23:13:08.069Z,67.40
2019-02-16T23:15:37.454Z,67.80
2019-02-16T23:18:06.846Z,68.10
2019-02-16T23:20:36.175Z,67.90
2019-02-16T23:23:06.847Z,68.20
2019-02-16T23:25:36.193Z,68.20
2019-02-16T23:28:05.481Z,68.10
2019-02-16T23:30:35.290Z,68.30
2019-02-16T23:33:04.713Z,68.30
2019-02-16T23:35:33.984Z,68.30
2019-02-16T23:38:03.788Z,68.70
2019-02-16T23:40:33.060Z,68.00
2019-02-16T23:43:02.389Z,68.10
2019-02-16T23:45:31.720Z,68.00
2019-02-16T23:48:02.104Z,68.00
2019-02-16T23:50:31.375Z,68.50
2019-02-16T23:53:00.756Z,68.80
2019-02-16T23:55:30.109Z,69.10
2019-02-16T23:57:59.404Z,69.80
